createdAt,value
2022-09-16T00:03:11.234Z,95103.00
2022-09-16T00:07:15.197Z,95084.00
2022-09-16T00:11:17.859Z,95083.00
2022-09-16T00:15:20.635Z,95077.00
2022-09-16T00:19:23.246Z,95078.00
2022-09-16T00:23:27.400Z,95064.00
2022-09-16T00:27:30.055Z,95071.00
2022-09-16T00:31:32.665Z,95080.00
2022-09-16T00:35:35.348Z,95076.00
2022-09-16T00:39:39.295Z,95078.00
2022-09-16T00:43:52.899Z,95068.00
2022-09-16T00:47:57.237Z,95072.00
2022-09-16T00:52:01.872Z,95064.00
2022-09-16T00:56:07.844Z,95066.00
2022-09-16T01:00:13.425Z,95079.00
2022-09-16T01:04:19.071Z,95077.00
2022-09-16T01:08:21.731Z,95078.00
2022-09-16T01:12:27.442Z,95075.00
2022-09-16T01:16:32.207Z,95066.00
2022-09-16T01:20:49.687Z,95067.00
2022-09-16T01:24:55.510Z,95061.00
2022-09-16T01:29:11.367Z,95062.00
2022-09-16T01:33:19.036Z,95052.00
2022-09-16T01:37:25.019Z,95065.00
2022-09-16T01:41:32.605Z,95059.00
2022-09-16T01:45:37.377Z,95062.00
2022-09-16T01:49:46.210Z,95058.00
2022-09-16T01:53:51.799Z,95065.00
2022-09-16T01:57:57.331Z,95059.00
2022-09-16T02:02:03.702Z,95065.00
2022-09-16T02:06:09.454Z,95065.00
2022-09-16T02:10:14.807Z,95068.00
2022-09-16T02:14:19.371Z,95070.00
2022-09-16T02:18:24.368Z,95073.00
2022-09-16T02:22:30.394Z,95063.00
2022-09-16T02:26:36.007Z,95057.00
2022-09-16T02:30:38.592Z,95071.00
2022-09-16T02:34:43.206Z,95066.00
2022-09-16T02:38:48.703Z,95068.00
2022-09-16T02:42:51.780Z,95073.00
2022-09-16T02:46:57.460Z,95065.00
2022-09-16T02:51:03.171Z,95056.00
2022-09-16T02:55:12.269Z,95063.00
2022-09-16T02:59:16.036Z,95047.00
2022-09-16T03:03:18.842Z,95048.00
2022-09-16T03:07:21.504Z,95051.00
2022-09-16T03:11:30.308Z,95044.00
2022-09-16T03:15:37.963Z,95049.00
2022-09-16T03:19:45.620Z,95046.00
2022-09-16T03:23:53.983Z,95043.00
2022-09-16T03:28:01.615Z,95039.00
2022-09-16T03:32:06.586Z,95037.00
2022-09-16T03:36:10.369Z,95035.00
2022-09-16T03:40:14.142Z,95032.00
2022-09-16T03:44:18.255Z,95023.00
2022-09-16T03:48:20.869Z,95020.00
2022-09-16T03:52:23.446Z,95023.00
2022-09-16T03:56:26.030Z,95016.00
2022-09-16T04:00:30.063Z,95010.00
2022-09-16T04:04:32.619Z,95023.00
2022-09-16T04:08:35.187Z,95028.00
2022-09-16T04:12:37.771Z,95024.00
2022-09-16T04:16:44.989Z,95021.00
2022-09-16T04:20:48.033Z,95030.00
2022-09-16T04:24:50.801Z,95030.00
2022-09-16T04:28:53.532Z,95032.00
2022-09-16T04:32:57.948Z,95035.00
2022-09-16T04:37:00.525Z,95041.00
2022-09-16T04:41:03.412Z,95031.00
2022-09-16T04:45:06.573Z,95031.00
2022-09-16T04:49:12.715Z,95033.00
2022-09-16T04:53:15.306Z,95032.00
2022-09-16T04:57:17.888Z,95038.00
2022-09-16T05:01:21.249Z,95040.00
2022-09-16T05:05:25.259Z,95037.00
2022-09-16T05:09:28.380Z,95042.00
2022-09-16T05:13:30.959Z,95044.00
2022-09-16T05:17:50.459Z,95045.00
2022-09-16T05:21:55.403Z,95035.00
2022-09-16T05:26:03.171Z,95038.00
2022-09-16T05:30:06.149Z,95036.00
2022-09-16T05:34:12.246Z,95025.00
2022-09-16T05:38:16.460Z,95032.00
2022-09-16T05:42:19.056Z,95033.00
2022-09-16T05:46:22.329Z,95034.00
2022-09-16T05:50:24.920Z,95029.00
2022-09-16T05:54:28.889Z,95021.00
2022-09-16T05:58:32.495Z,95026.00
2022-09-16T06:02:35.141Z,95028.00
2022-09-16T06:06:39.211Z,95033.00
2022-09-16T06:10:43.236Z,95019.00
2022-09-16T06:14:45.874Z,95031.00
2022-09-16T06:18:48.514Z,95022.00
2022-09-16T06:22:51.141Z,95023.00
2022-09-16T06:26:55.105Z,95025.00
2022-09-16T06:31:05.047Z,95021.00
2022-09-16T06:35:08.011Z,95015.00
2022-09-16T06:39:12.328Z,95016.00
2022-09-16T06:43:16.306Z,95025.00
2022-09-16T06:47:18.929Z,95038.00
2022-09-16T06:51:22.778Z,95027.00
2022-09-16T06:55:25.431Z,95027.00
2022-09-16T06:59:29.359Z,95018.00
2022-09-16T07:03:31.943Z,95012.00
2022-09-16T07:07:36.548Z,95012.00
2022-09-16T07:11:40.698Z,95011.00
2022-09-16T07:16:09.110Z,95012.00
2022-09-16T07:20:07.687Z,95014.00
2022-09-16T07:24:12.354Z,95011.00
2022-09-16T07:28:14.924Z,95023.00
2022-09-16T07:32:18.846Z,95019.00
2022-09-16T07:36:22.306Z,95016.00
2022-09-16T07:40:29.550Z,95014.00
2022-09-16T07:44:32.382Z,95014.00
2022-09-16T07:48:36.356Z,95005.00
2022-09-16T07:52:38.988Z,95009.00
2022-09-16T07:56:42.487Z,95014.00
2022-09-16T08:00:45.043Z,95012.00
2022-09-16T08:04:49.018Z,95014.00
2022-09-16T08:08:52.957Z,95021.00
2022-09-16T08:12:55.690Z,95023.00
2022-09-16T08:16:58.769Z,95016.00
2022-09-16T08:21:08.014Z,95022.00
2022-09-16T08:25:10.771Z,95020.00
2022-09-16T08:29:13.693Z,95015.00
2022-09-16T08:33:21.018Z,95019.00
2022-09-16T08:37:26.554Z,95022.00
2022-09-16T08:41:40.686Z,95023.00
2022-09-16T08:45:45.692Z,95017.00
2022-09-16T08:49:51.019Z,95016.00
2022-09-16T08:53:57.292Z,95023.00
2022-09-16T08:58:02.332Z,95021.00
2022-09-16T09:02:14.382Z,95028.00
2022-09-16T09:06:23.974Z,95030.00
2022-09-16T09:10:31.589Z,95026.00
2022-09-16T09:14:38.906Z,95021.00
2022-09-16T09:18:45.110Z,95020.00
2022-09-16T09:22:55.058Z,95018.00
2022-09-16T09:27:00.878Z,95023.00
2022-09-16T09:31:10.607Z,95008.00
2022-09-16T09:35:22.442Z,95004.00
2022-09-16T09:39:42.907Z,95005.00
2022-09-16T09:43:49.003Z,94995.00
2022-09-16T09:47:53.438Z,94999.00
2022-09-16T09:51:58.086Z,95005.00
2022-09-16T09:56:05.596Z,95004.00
2022-09-16T10:00:13.866Z,94990.00
2022-09-16T10:04:16.922Z,94999.00
2022-09-16T10:08:23.754Z,94999.00
2022-09-16T10:12:30.505Z,95004.00
2022-09-16T10:16:37.178Z,94990.00
2022-09-16T10:20:40.879Z,94988.00
2022-09-16T10:24:44.024Z,94984.00
2022-09-16T10:28:56.731Z,94984.00
2022-09-16T10:33:01.906Z,94978.00
2022-09-16T10:37:05.950Z,94969.00
2022-09-16T10:41:09.618Z,94969.00
2022-09-16T10:45:16.864Z,94967.00
2022-09-16T10:49:21.606Z,94979.00
2022-09-16T10:53:30.590Z,94986.00
2022-09-16T10:57:34.322Z,94987.00
2022-09-16T11:01:44.471Z,94994.00
2022-09-16T11:05:55.037Z,94998.00
2022-09-16T11:10:00.831Z,94993.00
2022-09-16T11:14:07.671Z,94989.00
2022-09-16T11:18:17.677Z,94990.00
2022-09-16T11:22:26.983Z,94993.00
2022-09-16T11:26:32.395Z,95007.00
2022-09-16T11:34:14.059Z,95013.00
2022-09-16T11:38:25.882Z,95006.00
2022-09-16T11:42:34.820Z,95019.00
2022-09-16T11:46:47.026Z,95019.00
2022-09-16T11:50:58.706Z,95028.00
2022-09-16T11:55:32.367Z,95024.00
2022-09-16T11:59:40.990Z,95029.00
2022-09-16T12:03:49.520Z,95021.00
2022-09-16T12:07:59.235Z,95035.00
2022-09-16T12:12:11.997Z,95044.00
2022-09-16T12:16:18.192Z,95047.00
2022-09-16T12:20:25.876Z,95044.00
2022-09-16T12:24:37.055Z,95042.00
2022-09-16T12:28:46.042Z,95063.00
2022-09-16T12:32:56.695Z,95073.00
2022-09-16T12:37:04.499Z,95088.00
2022-09-16T12:41:22.646Z,95063.00
2022-09-16T12:45:44.974Z,95069.00
2022-09-16T12:50:23.226Z,95076.00
2022-09-16T12:55:07.712Z,95088.00
2022-09-16T12:59:26.418Z,95076.00
2022-09-16T13:03:32.296Z,95079.00
2022-09-16T13:07:36.573Z,95070.00
2022-09-16T13:16:07.927Z,95049.00
2022-09-16T13:20:18.702Z,95052.00
2022-09-16T13:24:31.175Z,95039.00
2022-09-16T13:28:38.842Z,95038.00
2022-09-16T13:32:46.170Z,95030.00
2022-09-16T13:36:48.960Z,95046.00
2022-09-16T13:40:57.432Z,95061.00
2022-09-16T13:45:00.131Z,95069.00
2022-09-16T13:49:19.771Z,95090.00
2022-09-16T13:53:25.889Z,95098.00
2022-09-16T13:57:48.358Z,95089.00
2022-09-16T14:04:29.804Z,95107.00
2022-09-16T14:08:41.535Z,95107.00
2022-09-16T14:12:52.934Z,95113.00
2022-09-16T14:16:55.786Z,95125.00
2022-09-16T14:21:02.694Z,95116.00
2022-09-16T14:25:29.707Z,95082.00
2022-09-16T14:29:32.861Z,95078.00
2022-09-16T14:33:39.849Z,95080.00
2022-09-16T14:37:46.185Z,95092.00
2022-09-16T14:41:52.071Z,95071.00
2022-09-16T14:50:08.040Z,95096.00
2022-09-16T14:54:18.859Z,95100.00
2022-09-16T14:58:23.661Z,95108.00
2022-09-16T15:02:30.392Z,95109.00
2022-09-16T15:06:40.390Z,95104.00
2022-09-16T15:10:52.485Z,95107.00
2022-09-16T15:14:55.667Z,95109.00
2022-09-16T15:19:01.631Z,95101.00
2022-09-16T15:23:09.642Z,95114.00
2022-09-16T15:27:24.153Z,95104.00
2022-09-16T15:31:34.662Z,95106.00
2022-09-16T15:35:38.603Z,95084.00
2022-09-16T15:39:41.285Z,95102.00
2022-09-16T15:43:47.057Z,95093.00
2022-09-16T15:47:57.808Z,95094.00
2022-09-16T15:52:07.961Z,95083.00
2022-09-16T15:56:22.551Z,95059.00
2022-09-16T16:00:26.631Z,95082.00
2022-09-16T16:04:32.090Z,95079.00
2022-09-16T16:08:40.272Z,95083.00
2022-09-16T16:12:43.409Z,95065.00
2022-09-16T16:17:11.249Z,95078.00
2022-09-16T16:21:12.587Z,95083.00
2022-09-16T16:25:15.290Z,95067.00
2022-09-16T16:29:18.172Z,95067.00
2022-09-16T16:33:22.234Z,95077.00
2022-09-16T16:37:45.486Z,95076.00
2022-09-16T16:41:48.405Z,95071.00
2022-09-16T16:45:54.908Z,95068.00
2022-09-16T16:50:00.697Z,95072.00
2022-09-16T16:54:03.478Z,95080.00
2022-09-16T16:58:06.154Z,95075.00
2022-09-16T17:02:12.293Z,95074.00
2022-09-16T17:06:16.955Z,95078.00
2022-09-16T17:10:19.601Z,95083.00
2022-09-16T17:14:23.587Z,95093.00
2022-09-16T17:18:26.271Z,95091.00
2022-09-16T17:22:30.290Z,95090.00
2022-09-16T17:26:32.978Z,95089.00
2022-09-16T17:30:35.695Z,95069.00
2022-09-16T17:34:38.382Z,95079.00
2022-09-16T17:38:42.970Z,95073.00
2022-09-16T17:42:45.643Z,95071.00
2022-09-16T17:46:48.487Z,95073.00
2022-09-16T17:50:51.961Z,95073.00
2022-09-16T17:54:56.162Z,95067.00
2022-09-16T17:58:58.838Z,95062.00
2022-09-16T18:03:01.794Z,95067.00
2022-09-16T18:07:04.569Z,95058.00
2022-09-16T18:11:10.320Z,95057.00
2022-09-16T18:15:13.066Z,95062.00
2022-09-16T18:19:15.978Z,95073.00
2022-09-16T18:23:18.639Z,95068.00
2022-09-16T18:27:22.729Z,95067.00
2022-09-16T18:31:26.200Z,95079.00
2022-09-16T18:35:29.032Z,95086.00
2022-09-16T18:39:32.326Z,95083.00
2022-09-16T18:43:36.942Z,95077.00
2022-09-16T18:47:39.656Z,95076.00
2022-09-16T18:51:47.424Z,95087.00
2022-09-16T18:55:53.709Z,95086.00
2022-09-16T18:59:57.784Z,95084.00
2022-09-16T19:04:02.054Z,95086.00
2022-09-16T19:08:04.770Z,95100.00
2022-09-16T19:12:09.610Z,95097.00
2022-09-16T19:16:14.450Z,95092.00
2022-09-16T19:20:17.202Z,95101.00
2022-09-16T19:24:22.755Z,95100.00
2022-09-16T19:28:25.426Z,95096.00
2022-09-16T19:32:29.504Z,95096.00
2022-09-16T19:36:34.614Z,95108.00
2022-09-16T19:40:37.301Z,95105.00
2022-09-16T19:44:40.323Z,95090.00
2022-09-16T19:48:46.188Z,95087.00
2022-09-16T19:52:48.910Z,95095.00
2022-09-16T19:56:51.719Z,95097.00
2022-09-16T20:00:59.393Z,95094.00
2022-09-16T20:05:05.112Z,95085.00
2022-09-16T20:09:13.273Z,95091.00
2022-09-16T20:13:15.943Z,95097.00
2022-09-16T20:17:18.648Z,95113.00
2022-09-16T20:21:25.059Z,95098.00
2022-09-16T20:25:27.799Z,95102.00
2022-09-16T20:29:31.780Z,95103.00
2022-09-16T20:33:34.611Z,95112.00
2022-09-16T20:37:38.800Z,95108.00
2022-09-16T20:41:41.730Z,95106.00
2022-09-16T20:45:45.028Z,95104.00
2022-09-16T20:49:47.735Z,95096.00
2022-09-16T20:53:53.640Z,95096.00
2022-09-16T20:57:56.375Z,95091.00
2022-09-16T21:02:03.916Z,95105.00
2022-09-16T21:06:09.572Z,95104.00
2022-09-16T21:10:13.638Z,95114.00
2022-09-16T21:14:17.965Z,95111.00
2022-09-16T21:18:22.235Z,95123.00
2022-09-16T21:22:24.959Z,95137.00
2022-09-16T21:26:30.942Z,95139.00
2022-09-16T21:30:33.623Z,95130.00
2022-09-16T21:34:36.294Z,95138.00
2022-09-16T21:38:40.038Z,95140.00
2022-09-16T21:42:45.703Z,95136.00
2022-09-16T21:46:49.536Z,95138.00
2022-09-16T21:50:53.547Z,95135.00
2022-09-16T21:54:56.194Z,95129.00
2022-09-16T21:59:00.770Z,95132.00
2022-09-16T22:03:03.451Z,95128.00
2022-09-16T22:07:10.637Z,95128.00
2022-09-16T22:11:15.318Z,95128.00
2022-09-16T22:15:20.150Z,95145.00
2022-09-16T22:19:22.832Z,95142.00
2022-09-16T22:23:25.655Z,95129.00
2022-09-16T22:27:28.908Z,95130.00
2022-09-16T22:31:34.337Z,95133.00
2022-09-16T22:35:37.378Z,95116.00
2022-09-16T22:39:40.048Z,95128.00
2022-09-16T22:43:44.780Z,95121.00
2022-09-16T22:47:48.867Z,95128.00
2022-09-16T22:51:51.574Z,95127.00
2022-09-16T22:55:57.503Z,95122.00
2022-09-16T23:00:00.156Z,95130.00
2022-09-16T23:04:05.166Z,95126.00
2022-09-16T23:08:07.971Z,95129.00
2022-09-16T23:12:11.034Z,95131.00
2022-09-16T23:16:16.089Z,95121.00
2022-09-16T23:20:20.166Z,95108.00
2022-09-16T23:24:23.277Z,95104.00
2022-09-16T23:28:25.971Z,95118.00
2022-09-16T23:32:29.906Z,95120.00
2022-09-16T23:36:37.398Z,95118.00
2022-09-16T23:40:40.862Z,95116.00
2022-09-16T23:44:43.602Z,95119.00
2022-09-16T23:48:46.301Z,95116.00
2022-09-16T23:52:50.329Z,95116.00
2022-09-16T23:56:52.965Z,95118.00
